KLM1938 LSGG-EHAM
Flight info
| Callsign | KLM1938 |
|---|---|
| Flight time | 1h 8m |
| Altitude | 32000 |
| Route | ARBOS DCT PENDU DCT IXILU DCT GIVOR DCT SORAL DCT IBERA DCT BUB Y28 HELEN |
| Aircraft | B738/M-SDE2E3FGHIRWXY/LB1 |
Departure
| Time | 2026-05-05 18:12 |
|---|---|
| Airport | Geneva International Airport (LSGG) |
Arrival
| Time | 2026-05-05 19:20 |
|---|---|
| Airport | Amsterdam Airport Schiphol (EHAM) |
| Time | Latitude | Longitude | Altitude | Speed | Heading |
|---|---|---|---|---|---|
| 2026-05-05 17:44 | 46.23129 | 6.10704 | 1419 ft | 0 kts | 135° |
| 2026-05-05 18:02 | 46.23134 | 6.10697 | 1419 ft | 5 kts | 134° |
| 2026-05-05 18:03 | 46.23150 | 6.10662 | 1419 ft | 3 kts | 104° |
| 2026-05-05 18:03 | 46.23149 | 6.10624 | 1419 ft | 5 kts | 67° |
| 2026-05-05 18:03 | 46.23146 | 6.10614 | 1419 ft | 0 kts | 50° |
| 2026-05-05 18:04 | 46.23148 | 6.10618 | 1419 ft | 3 kts | 50° |
| 2026-05-05 18:04 | 46.23188 | 6.10682 | 1419 ft | 13 kts | 47° |
| 2026-05-05 18:04 | 46.23240 | 6.10762 | 1419 ft | 9 kts | 44° |
| 2026-05-05 18:05 | 46.23309 | 6.10821 | 1419 ft | 17 kts | 18° |
| 2026-05-05 18:05 | 46.23417 | 6.10948 | 1419 ft | 21 kts | 45° |
| 2026-05-05 18:05 | 46.23512 | 6.11086 | 1419 ft | 17 kts | 45° |
| 2026-05-05 18:05 | 46.23592 | 6.11162 | 1419 ft | 11 kts | 354° |
| 2026-05-05 18:06 | 46.23662 | 6.11114 | 1419 ft | 16 kts | 350° |
| 2026-05-05 18:06 | 46.23739 | 6.11139 | 1419 ft | 17 kts | 35° |
| 2026-05-05 18:06 | 46.23836 | 6.11272 | 1419 ft | 15 kts | 45° |
| 2026-05-05 18:06 | 46.23925 | 6.11403 | 1419 ft | 23 kts | 45° |
| 2026-05-05 18:07 | 46.24055 | 6.11596 | 1419 ft | 26 kts | 45° |
| 2026-05-05 18:07 | 46.24179 | 6.11775 | 1419 ft | 24 kts | 46° |
| 2026-05-05 18:07 | 46.24293 | 6.11942 | 1419 ft | 25 kts | 46° |
| 2026-05-05 18:07 | 46.24432 | 6.12145 | 1419 ft | 30 kts | 46° |
| 2026-05-05 18:08 | 46.24568 | 6.12345 | 1419 ft | 25 kts | 45° |
| 2026-05-05 18:08 | 46.24678 | 6.12507 | 1419 ft | 20 kts | 45° |
| 2026-05-05 18:08 | 46.24765 | 6.12631 | 1419 ft | 13 kts | 40° |
| 2026-05-05 18:08 | 46.24826 | 6.12679 | 1419 ft | 7 kts | 18° |
| 2026-05-05 18:09 | 46.24872 | 6.12701 | 1419 ft | 9 kts | 18° |
| 2026-05-05 18:09 | 46.24916 | 6.12720 | 1419 ft | 0 kts | 18° |
| 2026-05-05 18:10 | 46.24965 | 6.12707 | 1419 ft | 17 kts | 317° |
| 2026-05-05 18:11 | 46.24946 | 6.12565 | 1419 ft | 12 kts | 225° |
| 2026-05-05 18:11 | 46.24938 | 6.12553 | 1419 ft | 0 kts | 229° |
| 2026-05-05 18:11 | 46.24899 | 6.12492 | 1419 ft | 35 kts | 226° |
| 2026-05-05 18:12 | 46.24522 | 6.11942 | 1419 ft | 116 kts | 225° |
| 2026-05-05 18:12 | 46.23802 | 6.10899 | 1598 ft | 165 kts | 224° |
| 2026-05-05 18:12 | 46.22989 | 6.09715 | 2560 ft | 162 kts | 224° |
| 2026-05-05 18:12 | 46.22192 | 6.08536 | 3374 ft | 172 kts | 224° |
| 2026-05-05 18:13 | 46.21291 | 6.07208 | 3811 ft | 199 kts | 225° |
| 2026-05-05 18:13 | 46.20259 | 6.05694 | 4154 ft | 227 kts | 225° |
| 2026-05-05 18:13 | 46.19096 | 6.03989 | 4658 ft | 248 kts | 225° |
| 2026-05-05 18:13 | 46.17847 | 6.02158 | 5500 ft | 257 kts | 225° |
| 2026-05-05 18:14 | 46.16585 | 6.00307 | 6482 ft | 260 kts | 225° |
| 2026-05-05 18:14 | 46.15321 | 5.98423 | 7477 ft | 263 kts | 232° |
| 2026-05-05 18:14 | 46.14541 | 5.96048 | 8435 ft | 267 kts | 256° |
| 2026-05-05 18:14 | 46.14533 | 5.93371 | 9381 ft | 273 kts | 279° |
| 2026-05-05 18:15 | 46.15316 | 5.90870 | 10321 ft | 281 kts | 302° |
| 2026-05-05 18:15 | 46.16773 | 5.88931 | 11114 ft | 297 kts | 322° |
| 2026-05-05 18:15 | 46.18703 | 5.87560 | 11584 ft | 322 kts | 336° |
| 2026-05-05 18:15 | 46.20876 | 5.86470 | 11984 ft | 342 kts | 336° |
| 2026-05-05 18:16 | 46.23178 | 5.85280 | 12387 ft | 360 kts | 336° |
| 2026-05-05 18:16 | 46.25577 | 5.84046 | 12918 ft | 373 kts | 337° |
| 2026-05-05 18:16 | 46.28033 | 5.82793 | 13737 ft | 376 kts | 337° |
| 2026-05-05 18:16 | 46.30541 | 5.81507 | 14528 ft | 381 kts | 337° |
| 2026-05-05 18:17 | 46.33052 | 5.80216 | 15244 ft | 387 kts | 337° |
| 2026-05-05 18:17 | 46.35602 | 5.78901 | 16031 ft | 390 kts | 337° |
| 2026-05-05 18:17 | 46.38180 | 5.77570 | 16652 ft | 397 kts | 337° |
| 2026-05-05 18:17 | 46.40787 | 5.76221 | 17395 ft | 400 kts | 337° |
| 2026-05-05 18:18 | 46.43400 | 5.74868 | 18200 ft | 400 kts | 336° |
| 2026-05-05 18:18 | 46.46030 | 5.73504 | 18853 ft | 405 kts | 336° |
| 2026-05-05 18:18 | 46.48680 | 5.72128 | 19489 ft | 409 kts | 336° |
| 2026-05-05 18:18 | 46.51367 | 5.70733 | 20125 ft | 413 kts | 336° |
| 2026-05-05 18:19 | 46.54084 | 5.69311 | 20749 ft | 416 kts | 335° |
| 2026-05-05 18:19 | 46.56731 | 5.67630 | 21366 ft | 416 kts | 329° |
| 2026-05-05 18:19 | 46.59276 | 5.65627 | 21992 ft | 415 kts | 326° |
| 2026-05-05 18:19 | 46.61808 | 5.63622 | 22643 ft | 420 kts | 333° |
| 2026-05-05 18:20 | 46.64658 | 5.62475 | 23154 ft | 432 kts | 349° |
| 2026-05-05 18:20 | 46.67675 | 5.62532 | 23839 ft | 437 kts | 6° |
| 2026-05-05 18:20 | 46.70631 | 5.63731 | 24156 ft | 451 kts | 21° |
| 2026-05-05 18:20 | 46.73375 | 5.66129 | 24563 ft | 459 kts | 38° |
| 2026-05-05 18:21 | 46.75643 | 5.69406 | 25107 ft | 461 kts | 49° |
| 2026-05-05 18:21 | 46.77755 | 5.72893 | 25692 ft | 460 kts | 48° |
| 2026-05-05 18:21 | 46.79944 | 5.76275 | 26321 ft | 459 kts | 46° |
| 2026-05-05 18:21 | 46.82113 | 5.79698 | 26773 ft | 462 kts | 48° |
| 2026-05-05 18:22 | 46.84348 | 5.83084 | 27149 ft | 465 kts | 45° |
| 2026-05-05 18:22 | 46.86689 | 5.86394 | 27506 ft | 470 kts | 43° |
| 2026-05-05 18:22 | 46.89076 | 5.89683 | 27771 ft | 476 kts | 44° |
| 2026-05-05 18:22 | 46.91486 | 5.93013 | 28116 ft | 479 kts | 44° |
| 2026-05-05 18:23 | 46.93903 | 5.96360 | 28536 ft | 480 kts | 43° |
| 2026-05-05 18:23 | 46.96538 | 5.99300 | 29171 ft | 473 kts | 29° |
| 2026-05-05 18:23 | 46.99513 | 6.01232 | 29873 ft | 466 kts | 16° |
| 2026-05-05 18:23 | 47.02675 | 6.02189 | 30236 ft | 465 kts | 5° |
| 2026-05-05 18:24 | 47.05926 | 6.02612 | 30598 ft | 466 kts | 1° |
| 2026-05-05 18:24 | 47.09172 | 6.02799 | 30979 ft | 467 kts | 359° |
| 2026-05-05 18:24 | 47.12406 | 6.02868 | 31397 ft | 466 kts | 359° |
| 2026-05-05 18:24 | 47.15636 | 6.02929 | 31758 ft | 467 kts | 359° |
| 2026-05-05 18:25 | 47.18894 | 6.02992 | 31834 ft | 468 kts | 359° |
| 2026-05-05 18:25 | 47.25387 | 6.03116 | 31845 ft | 466 kts | 359° |
| 2026-05-05 18:26 | 47.31845 | 6.03241 | 31846 ft | 465 kts | 360° |
| 2026-05-05 18:26 | 47.38309 | 6.03370 | 31846 ft | 466 kts | 360° |
| 2026-05-05 18:27 | 47.44791 | 6.03501 | 31847 ft | 466 kts | 360° |
| 2026-05-05 18:27 | 47.51267 | 6.03633 | 31846 ft | 466 kts | 0° |
| 2026-05-05 18:28 | 47.61000 | 6.03832 | 31846 ft | 466 kts | 0° |
| 2026-05-05 18:28 | 47.67491 | 6.03966 | 31846 ft | 467 kts | 0° |
| 2026-05-05 18:29 | 47.73952 | 6.04411 | 31846 ft | 467 kts | 7° |
| 2026-05-05 18:29 | 47.80302 | 6.06361 | 31846 ft | 466 kts | 15° |
| 2026-05-05 18:30 | 47.86590 | 6.08772 | 31843 ft | 466 kts | 15° |
| 2026-05-05 18:30 | 47.92907 | 6.11182 | 31846 ft | 466 kts | 15° |
| 2026-05-05 18:31 | 47.99134 | 6.13550 | 31846 ft | 466 kts | 15° |
| 2026-05-05 18:31 | 48.05441 | 6.15948 | 31837 ft | 466 kts | 15° |
| 2026-05-05 18:32 | 48.11725 | 6.18322 | 31838 ft | 466 kts | 15° |
| 2026-05-05 18:32 | 48.17976 | 6.20690 | 31836 ft | 465 kts | 15° |
| 2026-05-05 18:33 | 48.24256 | 6.23079 | 31828 ft | 466 kts | 15° |
| 2026-05-05 18:33 | 48.30562 | 6.25486 | 31826 ft | 466 kts | 15° |
| 2026-05-05 18:34 | 48.36848 | 6.27885 | 31830 ft | 465 kts | 15° |
| 2026-05-05 18:34 | 48.43071 | 6.30267 | 31830 ft | 464 kts | 15° |
| 2026-05-05 18:35 | 48.49346 | 6.32685 | 31831 ft | 463 kts | 16° |
| 2026-05-05 18:35 | 48.55528 | 6.35076 | 31830 ft | 460 kts | 16° |
| 2026-05-05 18:36 | 48.61754 | 6.37489 | 31830 ft | 460 kts | 16° |
| 2026-05-05 18:36 | 48.68043 | 6.39327 | 31829 ft | 462 kts | 7° |
| 2026-05-05 18:37 | 48.74448 | 6.40026 | 31832 ft | 463 kts | 5° |
| 2026-05-05 18:37 | 48.80883 | 6.40655 | 31832 ft | 462 kts | 5° |
| 2026-05-05 18:38 | 48.87302 | 6.41302 | 31832 ft | 462 kts | 5° |
| 2026-05-05 18:38 | 48.93721 | 6.41961 | 31822 ft | 464 kts | 4° |
| 2026-05-05 18:39 | 49.00151 | 6.42628 | 31819 ft | 464 kts | 4° |
| 2026-05-05 18:39 | 49.06607 | 6.43296 | 31817 ft | 463 kts | 4° |
| 2026-05-05 18:40 | 49.12987 | 6.42862 | 31817 ft | 462 kts | 353° |
| 2026-05-05 18:40 | 49.19270 | 6.40656 | 31817 ft | 463 kts | 345° |
| 2026-05-05 18:41 | 49.25483 | 6.38055 | 31821 ft | 463 kts | 345° |
| 2026-05-05 18:41 | 49.31694 | 6.35466 | 31823 ft | 463 kts | 345° |
| 2026-05-05 18:42 | 49.37917 | 6.32874 | 31823 ft | 463 kts | 345° |
| 2026-05-05 18:42 | 49.43784 | 6.30429 | 31834 ft | 461 kts | 343° |
| 2026-05-05 18:43 | 49.49877 | 6.27302 | 31817 ft | 460 kts | 334° |
| 2026-05-05 18:43 | 49.55283 | 6.22213 | 31799 ft | 456 kts | 322° |
| 2026-05-05 18:44 | 49.60291 | 6.16190 | 31791 ft | 456 kts | 320° |
| 2026-05-05 18:44 | 49.65277 | 6.10098 | 31789 ft | 457 kts | 320° |
| 2026-05-05 18:45 | 49.70272 | 6.03998 | 31792 ft | 459 kts | 321° |
| 2026-05-05 18:45 | 49.75299 | 5.97854 | 31795 ft | 458 kts | 321° |
| 2026-05-05 18:46 | 49.80294 | 5.91781 | 31800 ft | 458 kts | 321° |
| 2026-05-05 18:46 | 49.84643 | 5.86508 | 31799 ft | 457 kts | 321° |
| 2026-05-05 18:47 | 49.89621 | 5.80442 | 31806 ft | 454 kts | 320° |
| 2026-05-05 18:47 | 49.94579 | 5.74374 | 31814 ft | 451 kts | 319° |
| 2026-05-05 18:48 | 49.99487 | 5.68346 | 31813 ft | 450 kts | 319° |
| 2026-05-05 18:48 | 50.04388 | 5.62308 | 31811 ft | 451 kts | 319° |
| 2026-05-05 18:49 | 50.08476 | 5.57257 | 31814 ft | 448 kts | 319° |
| 2026-05-05 18:49 | 50.13362 | 5.51205 | 31821 ft | 449 kts | 319° |
| 2026-05-05 18:50 | 50.18244 | 5.45141 | 31814 ft | 447 kts | 319° |
| 2026-05-05 18:50 | 50.23114 | 5.39075 | 31821 ft | 448 kts | 319° |
| 2026-05-05 18:51 | 50.27986 | 5.32991 | 31818 ft | 450 kts | 319° |
| 2026-05-05 18:51 | 50.32914 | 5.26819 | 31832 ft | 455 kts | 319° |
| 2026-05-05 18:52 | 50.37834 | 5.20641 | 31829 ft | 453 kts | 319° |
| 2026-05-05 18:52 | 50.42702 | 5.14510 | 31833 ft | 449 kts | 319° |
| 2026-05-05 18:53 | 50.47617 | 5.08303 | 31840 ft | 458 kts | 321° |
| 2026-05-05 18:53 | 50.52609 | 5.01982 | 31842 ft | 462 kts | 321° |
| 2026-05-05 18:54 | 50.57616 | 4.95623 | 31848 ft | 461 kts | 320° |
| 2026-05-05 18:54 | 50.62607 | 4.89268 | 31851 ft | 460 kts | 320° |
| 2026-05-05 18:55 | 50.67135 | 4.83515 | 31862 ft | 456 kts | 319° |
| 2026-05-05 18:55 | 50.72076 | 4.77214 | 31864 ft | 458 kts | 319° |
| 2026-05-05 18:56 | 50.77005 | 4.70876 | 31869 ft | 457 kts | 319° |
| 2026-05-05 18:56 | 50.81946 | 4.64494 | 31874 ft | 459 kts | 320° |
| 2026-05-05 18:57 | 50.86856 | 4.58114 | 31874 ft | 460 kts | 318° |
| 2026-05-05 18:57 | 50.90930 | 4.51373 | 31876 ft | 457 kts | 306° |
| 2026-05-05 18:58 | 50.92729 | 4.47391 | 31687 ft | 452 kts | 301° |
| 2026-05-05 18:58 | 50.94285 | 4.43500 | 31374 ft | 442 kts | 300° |
| 2026-05-05 18:58 | 50.95869 | 4.39396 | 30886 ft | 439 kts | 299° |
| 2026-05-05 18:58 | 50.97469 | 4.35234 | 30389 ft | 436 kts | 299° |
| 2026-05-05 18:59 | 50.98564 | 4.32383 | 30050 ft | 434 kts | 299° |
| 2026-05-05 18:59 | 51.00143 | 4.28264 | 29572 ft | 431 kts | 298° |
| 2026-05-05 18:59 | 51.01691 | 4.24221 | 29107 ft | 427 kts | 298° |
| 2026-05-05 18:59 | 51.03213 | 4.20240 | 28645 ft | 423 kts | 298° |
| 2026-05-05 19:00 | 51.04729 | 4.16269 | 28181 ft | 420 kts | 298° |
| 2026-05-05 19:00 | 51.06249 | 4.12288 | 27712 ft | 417 kts | 298° |
| 2026-05-05 19:00 | 51.07755 | 4.08385 | 27245 ft | 414 kts | 301° |
| 2026-05-05 19:00 | 51.09492 | 4.04730 | 26781 ft | 413 kts | 309° |
| 2026-05-05 19:01 | 51.11499 | 4.01495 | 26314 ft | 412 kts | 316° |
| 2026-05-05 19:01 | 51.13742 | 3.98552 | 25843 ft | 411 kts | 321° |
| 2026-05-05 19:01 | 51.15999 | 3.95882 | 25389 ft | 408 kts | 322° |
| 2026-05-05 19:01 | 51.18262 | 3.93223 | 24935 ft | 406 kts | 322° |
| 2026-05-05 19:02 | 51.20543 | 3.90554 | 24472 ft | 404 kts | 325° |
| 2026-05-05 19:02 | 51.23067 | 3.88483 | 24028 ft | 403 kts | 339° |
| 2026-05-05 19:02 | 51.25721 | 3.87409 | 23659 ft | 400 kts | 351° |
| 2026-05-05 19:02 | 51.28536 | 3.86970 | 22943 ft | 405 kts | 357° |
| 2026-05-05 19:03 | 51.31349 | 3.86797 | 22388 ft | 405 kts | 359° |
| 2026-05-05 19:03 | 51.34127 | 3.86730 | 21851 ft | 404 kts | 0° |
| 2026-05-05 19:03 | 51.36954 | 3.86666 | 21308 ft | 403 kts | 0° |
| 2026-05-05 19:03 | 51.39759 | 3.86602 | 20772 ft | 400 kts | 0° |
| 2026-05-05 19:04 | 51.42559 | 3.86538 | 20235 ft | 398 kts | 0° |
| 2026-05-05 19:04 | 51.45287 | 3.86474 | 19712 ft | 395 kts | 0° |
| 2026-05-05 19:04 | 51.47994 | 3.86410 | 19193 ft | 392 kts | 0° |
| 2026-05-05 19:04 | 51.50743 | 3.86344 | 18665 ft | 389 kts | 0° |
| 2026-05-05 19:05 | 51.53411 | 3.86280 | 18158 ft | 386 kts | 0° |
| 2026-05-05 19:05 | 51.56135 | 3.86214 | 17638 ft | 382 kts | 0° |
| 2026-05-05 19:05 | 51.58767 | 3.86150 | 17135 ft | 379 kts | 0° |
| 2026-05-05 19:05 | 51.61394 | 3.86086 | 16632 ft | 376 kts | 0° |
| 2026-05-05 19:06 | 51.64005 | 3.86022 | 16131 ft | 373 kts | 0° |
| 2026-05-05 19:06 | 51.66585 | 3.85959 | 15636 ft | 370 kts | 0° |
| 2026-05-05 19:06 | 51.69119 | 3.85920 | 15147 ft | 367 kts | 2° |
| 2026-05-05 19:06 | 51.71663 | 3.86677 | 14650 ft | 362 kts | 20° |
| 2026-05-05 19:07 | 51.73899 | 3.88509 | 14123 ft | 359 kts | 34° |
| 2026-05-05 19:07 | 51.75881 | 3.90892 | 13637 ft | 356 kts | 40° |
| 2026-05-05 19:07 | 51.77751 | 3.93489 | 13158 ft | 353 kts | 42° |
| 2026-05-05 19:07 | 51.79562 | 3.96157 | 12683 ft | 351 kts | 43° |
| 2026-05-05 19:08 | 51.81349 | 3.98787 | 12217 ft | 348 kts | 43° |
| 2026-05-05 19:08 | 51.83141 | 4.01410 | 11750 ft | 346 kts | 42° |
| 2026-05-05 19:08 | 51.84917 | 4.04003 | 11290 ft | 343 kts | 42° |
| 2026-05-05 19:08 | 51.86681 | 4.06572 | 10835 ft | 341 kts | 42° |
| 2026-05-05 19:09 | 51.88428 | 4.09111 | 10491 ft | 336 kts | 41° |
| 2026-05-05 19:09 | 51.90160 | 4.11548 | 10240 ft | 328 kts | 38° |
| 2026-05-05 19:09 | 51.92031 | 4.13595 | 9987 ft | 321 kts | 30° |
| 2026-05-05 19:09 | 51.93987 | 4.15199 | 9890 ft | 309 kts | 25° |
| 2026-05-05 19:10 | 51.95912 | 4.16588 | 9875 ft | 296 kts | 23° |
| 2026-05-05 19:10 | 51.97782 | 4.17892 | 9865 ft | 283 kts | 23° |
| 2026-05-05 19:10 | 51.99554 | 4.19134 | 9785 ft | 274 kts | 23° |
| 2026-05-05 19:10 | 52.01267 | 4.20342 | 9593 ft | 264 kts | 24° |
| 2026-05-05 19:11 | 52.02935 | 4.21523 | 9236 ft | 260 kts | 24° |
| 2026-05-05 19:11 | 52.04584 | 4.22695 | 8842 ft | 259 kts | 24° |
| 2026-05-05 19:11 | 52.06226 | 4.23855 | 8462 ft | 256 kts | 23° |
| 2026-05-05 19:11 | 52.07877 | 4.24886 | 8092 ft | 254 kts | 21° |
| 2026-05-05 19:12 | 52.09524 | 4.25868 | 7949 ft | 241 kts | 21° |
| 2026-05-05 19:12 | 52.11057 | 4.26781 | 7748 ft | 233 kts | 21° |
| 2026-05-05 19:12 | 52.12547 | 4.27668 | 7429 ft | 230 kts | 21° |
| 2026-05-05 19:12 | 52.14055 | 4.28563 | 7093 ft | 227 kts | 21° |
| 2026-05-05 19:13 | 52.15532 | 4.29436 | 6755 ft | 225 kts | 21° |
| 2026-05-05 19:13 | 52.16990 | 4.30298 | 6401 ft | 223 kts | 21° |
| 2026-05-05 19:13 | 52.18446 | 4.31158 | 6062 ft | 221 kts | 21° |
| 2026-05-05 19:13 | 52.19879 | 4.32000 | 5724 ft | 219 kts | 21° |
| 2026-05-05 19:14 | 52.21305 | 4.32844 | 5373 ft | 217 kts | 22° |
| 2026-05-05 19:14 | 52.22517 | 4.34221 | 4978 ft | 216 kts | 54° |
| 2026-05-05 19:14 | 52.22900 | 4.36273 | 4718 ft | 214 kts | 90° |
| 2026-05-05 19:14 | 52.22452 | 4.38521 | 4626 ft | 203 kts | 116° |
| 2026-05-05 19:15 | 52.21709 | 4.40394 | 4490 ft | 193 kts | 124° |
| 2026-05-05 19:15 | 52.20773 | 4.41957 | 4198 ft | 192 kts | 137° |
| 2026-05-05 19:15 | 52.19730 | 4.43315 | 3857 ft | 189 kts | 128° |
| 2026-05-05 19:15 | 52.19265 | 4.45221 | 3468 ft | 181 kts | 89° |
| 2026-05-05 19:16 | 52.19408 | 4.47199 | 3186 ft | 174 kts | 72° |
| 2026-05-05 19:16 | 52.19817 | 4.49045 | 2853 ft | 172 kts | 64° |
| 2026-05-05 19:16 | 52.20334 | 4.50796 | 2584 ft | 171 kts | 62° |
| 2026-05-05 19:16 | 52.20864 | 4.52528 | 2358 ft | 167 kts | 60° |
| 2026-05-05 19:17 | 52.21427 | 4.54177 | 2109 ft | 165 kts | 58° |
| 2026-05-05 19:17 | 52.22019 | 4.55778 | 1969 ft | 165 kts | 58° |
| 2026-05-05 19:17 | 52.22616 | 4.57354 | 1973 ft | 165 kts | 58° |
| 2026-05-05 19:17 | 52.23225 | 4.58947 | 1979 ft | 166 kts | 57° |
| 2026-05-05 19:18 | 52.23843 | 4.60555 | 1883 ft | 170 kts | 57° |
| 2026-05-05 19:18 | 52.24467 | 4.62176 | 1664 ft | 167 kts | 57° |
| 2026-05-05 19:18 | 52.25078 | 4.63762 | 1453 ft | 161 kts | 56° |
| 2026-05-05 19:18 | 52.25658 | 4.65269 | 1234 ft | 155 kts | 56° |
| 2026-05-05 19:19 | 52.26221 | 4.66732 | 1024 ft | 150 kts | 56° |
| 2026-05-05 19:19 | 52.26757 | 4.68125 | 846 ft | 141 kts | 56° |
| 2026-05-05 19:19 | 52.27278 | 4.69480 | 659 ft | 137 kts | 56° |
| 2026-05-05 19:19 | 52.27774 | 4.70769 | 472 ft | 135 kts | 56° |
| 2026-05-05 19:20 | 52.28274 | 4.72070 | 294 ft | 135 kts | 56° |
| 2026-05-05 19:20 | 52.28770 | 4.73361 | 115 ft | 136 kts | 56° |
| 2026-05-05 19:20 | 52.29266 | 4.74657 | 13 ft | 118 kts | 56° |
| 2026-05-05 19:20 | 52.29559 | 4.75398 | 13 ft | 41 kts | 58° |
| 2026-05-05 19:21 | 52.29680 | 4.75688 | 13 ft | 25 kts | 41° |
| 2026-05-05 19:21 | 52.29801 | 4.75816 | 13 ft | 11 kts | 31° |
| 2026-05-05 19:21 | 52.29854 | 4.75864 | 13 ft | 6 kts | 28° |
| 2026-05-05 19:21 | 52.29868 | 4.75877 | 13 ft | 0 kts | 28° |
| 2026-05-05 19:22 | 52.29881 | 4.75887 | 13 ft | 5 kts | 28° |
| 2026-05-05 19:23 | 52.29925 | 4.75926 | 13 ft | 8 kts | 28° |
| 2026-05-05 19:23 | 52.29969 | 4.75971 | 13 ft | 8 kts | 41° |
| 2026-05-05 19:23 | 52.30014 | 4.76057 | 13 ft | 12 kts | 56° |
| 2026-05-05 19:23 | 52.30060 | 4.76171 | 13 ft | 10 kts | 58° |
| 2026-05-05 19:24 | 52.30091 | 4.76252 | 13 ft | 8 kts | 58° |
| 2026-05-05 19:24 | 52.30119 | 4.76326 | 13 ft | 7 kts | 58° |
| 2026-05-05 19:24 | 52.30148 | 4.76401 | 13 ft | 10 kts | 58° |
| 2026-05-05 19:24 | 52.30190 | 4.76510 | 13 ft | 11 kts | 58° |
| 2026-05-05 19:25 | 52.30221 | 4.76591 | 13 ft | 8 kts | 58° |
| 2026-05-05 19:25 | 52.30259 | 4.76690 | 13 ft | 8 kts | 58° |
| 2026-05-05 19:25 | 52.30287 | 4.76730 | 13 ft | 4 kts | 18° |
| 2026-05-05 19:25 | 52.30323 | 4.76722 | 13 ft | 7 kts | 323° |
| 2026-05-05 19:26 | 52.30346 | 4.76654 | 13 ft | 5 kts | 292° |
| 2026-05-05 19:26 | 52.30368 | 4.76594 | 13 ft | 9 kts | 310° |
| 2026-05-05 19:26 | 52.30409 | 4.76541 | 13 ft | 5 kts | 326° |
| 2026-05-05 19:26 | 52.30425 | 4.76523 | 13 ft | 1 kts | 326° |
| 2026-05-05 19:27 | 52.30458 | 4.76488 | 13 ft | 11 kts | 326° |
| 2026-05-05 19:27 | 52.30502 | 4.76443 | 13 ft | 10 kts | 327° |
| 2026-05-05 19:27 | 52.30541 | 4.76432 | 13 ft | 1 kts | 22° |
| 2026-05-05 19:27 | 52.30554 | 4.76448 | 13 ft | 5 kts | 47° |
| 2026-05-05 19:28 | 52.30570 | 4.76485 | 13 ft | 0 kts | 56° |